Soweto, South Africa
Current Conditions -  °F | °C
As of 6:00 AM on Thursday 27 Nov 2014 (Local Time) from FALA Reporting Station
Scattered Clouds Scattered Clouds  
Wind Chill: 59°   Ceiling: Unl
Heat Index: 59°   Visibility: 6mi
Dew Point: 59°   Wind: 5mph
Humidity: 100%   Direction: 220°SW
Pressure: 30.12"   Gusts: NA
Location:  26.28°S, 27.84°E
Report Text: FALA 270400Z 22004KT 180V240 9999 SCT020 15/15 Q1020 NOSIG
Loading
Personal Weather Stations






























Interactive Weather Map New forecast layout! Learn more

10-Day Weather Forecast

Advertisements
Track Severe Weather on mobile